Time;durP1;ratioP1;P1;durP2;ratioP2;P2;SDS_P1;SDS_P2;PMS_P1;PMS_P2;Temp;Humidity;BMP_temperature;BMP_pressure;BME280_temperature;BME280_humidity;BME280_pressure;Samples;Min_cycle;Max_cycle;Signal;HPM_P1;HPM_P2
2022/05/10 00:00:20;;;;;;;20.88;11.05;;;14.40;99.90;;;;;;5070462;28;20398;-54
2022/05/10 00:02:49;;;;;;;22.55;12.95;;;14.40;99.90;;;;;;5070537;28;20027;-54
2022/05/10 00:05:18;;;;;;;26.25;13.32;;;14.40;99.90;;;;;;5070355;28;20017;-56
2022/05/10 00:07:44;;;;;;;29.65;12.88;;;14.40;99.90;;;;;;5070362;28;20025;-56
2022/05/10 00:10:13;;;;;;;24.90;13.07;;;14.40;99.90;;;;;;5070462;28;20040;-56
2022/05/10 00:12:39;;;;;;;21.50;11.90;;;14.40;99.90;;;;;;5070861;28;20020;-54
2022/05/10 00:15:05;;;;;;;25.30;13.20;;;14.40;99.90;;;;;;5070456;28;20111;-55
2022/05/10 00:17:36;;;;;;;27.23;12.80;;;14.40;99.90;;;;;;5070393;28;20040;-55
2022/05/10 00:20:05;;;;;;;25.05;12.80;;;14.40;99.90;;;;;;5070789;28;20021;-55
2022/05/10 00:22:30;;;;;;;30.10;13.23;;;14.40;99.90;;;;;;5073027;28;20430;-55
2022/05/10 00:24:56;;;;;;;23.95;13.10;;;14.30;99.90;;;;;;5074590;28;20105;-55
2022/05/10 00:27:22;;;;;;;29.67;13.60;;;14.40;99.90;;;;;;5074623;28;20413;-54
2022/05/10 00:29:48;;;;;;;31.20;13.45;;;14.40;99.90;;;;;;5074226;28;20028;-55
2022/05/10 00:32:14;;;;;;;22.30;13.02;;;14.40;99.90;;;;;;5074316;28;20020;-54
2022/05/10 00:34:40;;;;;;;22.45;12.75;;;14.30;99.90;;;;;;5074278;28;20056;-55
2022/05/10 00:37:06;;;;;;;26.50;13.13;;;14.30;99.90;;;;;;5074089;28;20443;-55
2022/05/10 00:39:32;;;;;;;21.33;12.77;;;14.30;99.90;;;;;;5074199;28;20382;-54
2022/05/10 00:42:12;;;;;;;28.17;12.95;;;14.40;99.90;;;;;;5074313;28;20040;-54
2022/05/10 00:44:49;;;;;;;25.50;12.95;;;14.40;99.90;;;;;;5074008;28;20507;-55
2022/05/10 00:47:33;;;;;;;21.88;12.23;;;14.40;99.90;;;;;;5073813;28;20471;-54
2022/05/10 00:50:21;;;;;;;26.02;13.48;;;14.50;99.90;;;;;;5073816;28;20031;-57
2022/05/10 00:52:53;;;;;;;23.45;13.02;;;14.60;99.90;;;;;;5073898;28;20036;-55
2022/05/10 00:55:43;;;;;;;25.95;12.63;;;14.70;99.90;;;;;;5074095;28;20032;-55
2022/05/10 00:58:44;;;;;;;26.85;13.02;;;14.60;99.90;;;;;;5073631;28;20028;-54
2022/05/10 01:01:16;;;;;;;22.20;12.85;;;14.60;99.90;;;;;;5074003;28;20017;-54
2022/05/10 01:03:55;;;;;;;24.63;13.93;;;14.50;99.90;;;;;;5073826;28;20382;-54
2022/05/10 01:06:36;;;;;;;25.27;13.63;;;14.60;99.90;;;;;;5073456;28;20545;-55
2022/05/10 01:09:08;;;;;;;27.20;12.80;;;14.60;99.90;;;;;;5072312;28;20043;-54
2022/05/10 01:12:02;;;;;;;23.97;13.70;;;14.60;99.90;;;;;;5073772;28;20029;-55
2022/05/10 01:15:06;;;;;;;24.80;13.88;;;14.60;99.90;;;;;;5067434;28;20032;-54
2022/05/10 01:17:32;;;;;;;23.88;13.48;;;14.60;99.90;;;;;;5070974;28;20037;-54
2022/05/10 01:19:58;;;;;;;25.45;13.77;;;14.60;99.90;;;;;;5073376;28;20023;-54
2022/05/10 01:22:40;;;;;;;26.00;13.20;;;14.50;99.90;;;;;;5073540;28;20028;-54
2022/05/10 01:28:18;;;;;;;24.88;13.88;;;14.50;99.90;;;;;;5072713;28;20520;-54
2022/05/10 01:30:44;;;;;;;25.63;14.27;;;14.50;99.90;;;;;;5073312;28;20042;-54
2022/05/10 01:33:31;;;;;;;25.15;13.95;;;14.40;99.90;;;;;;5072785;28;20033;-54
2022/05/10 01:36:25;;;;;;;25.63;13.38;;;14.40;99.90;;;;;;5072747;28;20101;-55
2022/05/10 01:39:10;;;;;;;25.60;13.90;;;14.30;99.90;;;;;;5072777;28;20108;-54
2022/05/10 01:41:50;;;;;;;22.20;13.27;;;14.30;99.90;;;;;;5073481;28;20109;-54
2022/05/10 01:44:25;;;;;;;21.38;13.93;;;14.20;99.90;;;;;;5073551;28;20020;-54
2022/05/10 01:46:57;;;;;;;27.48;13.85;;;14.20;99.90;;;;;;5073528;28;20059;-54
2022/05/10 01:49:48;;;;;;;26.27;14.88;;;14.20;99.90;;;;;;5073383;28;20020;-56
2022/05/10 01:52:43;;;;;;;23.50;14.27;;;14.20;99.90;;;;;;5073739;28;20029;-54
2022/05/10 01:55:30;;;;;;;23.63;14.57;;;14.20;99.90;;;;;;5071755;28;20043;-54
2022/05/10 01:58:00;;;;;;;28.15;14.65;;;14.30;99.90;;;;;;5072538;28;20423;-54
2022/05/10 02:00:33;;;;;;;29.05;14.25;;;14.30;99.90;;;;;;5072358;28;20113;-55
2022/05/10 02:03:34;;;;;;;29.20;14.80;;;14.50;99.90;;;;;;5072864;28;20032;-55
2022/05/10 02:06:26;;;;;;;26.00;15.20;;;14.50;99.90;;;;;;5069868;28;20036;-55
2022/05/10 02:09:04;;;;;;;25.42;15.20;;;14.50;99.90;;;;;;5072400;28;20441;-54
2022/05/10 02:11:31;;;;;;;29.92;14.93;;;14.40;99.90;;;;;;5073737;28;20077;-54
2022/05/10 02:14:10;;;;;;;24.92;14.45;;;14.40;99.90;;;;;;5072467;28;20367;-53
2022/05/10 02:16:44;;;;;;;29.95;15.80;;;14.50;99.90;;;;;;5072166;28;20017;-54
2022/05/10 02:19:18;;;;;;;20.88;14.95;;;14.60;99.90;;;;;;5072394;28;20086;-54
2022/05/10 02:21:48;;;;;;;26.92;16.00;;;14.60;99.90;;;;;;5072713;28;20070;-54
2022/05/10 02:24:28;;;;;;;25.70;15.43;;;14.60;99.90;;;;;;5072657;28;20024;-54
2022/05/10 02:27:05;;;;;;;27.25;15.77;;;14.60;99.90;;;;;;5073404;28;20025;-54
2022/05/10 02:29:50;;;;;;;24.38;15.07;;;14.60;99.90;;;;;;5071675;28;20028;-55
2022/05/10 02:35:16;;;;;;;26.65;15.55;;;14.70;99.90;;;;;;5071493;28;20059;-55
2022/05/10 02:37:42;;;;;;;28.80;15.60;;;14.80;99.90;;;;;;5071548;28;20444;-55
2022/05/10 02:40:09;;;;;;;24.92;16.38;;;14.80;99.90;;;;;;5071636;28;20079;-55
2022/05/10 02:42:35;;;;;;;26.80;15.55;;;14.80;99.90;;;;;;5071529;28;20066;-55
2022/05/10 02:45:01;;;;;;;29.70;16.73;;;14.90;99.90;;;;;;5071112;28;20017;-55
2022/05/10 02:47:47;;;;;;;30.80;15.27;;;14.90;99.90;;;;;;5071494;28;20081;-55
2022/05/10 02:50:24;;;;;;;31.35;16.45;;;15.00;99.90;;;;;;5071428;28;20039;-55
2022/05/10 02:52:50;;;;;;;27.38;14.82;;;15.10;99.90;;;;;;5071523;28;20058;-55
2022/05/10 02:55:27;;;;;;;26.13;15.68;;;15.10;99.90;;;;;;5071071;28;20028;-55
2022/05/10 02:58:04;;;;;;;29.02;17.08;;;15.00;99.90;;;;;;5070876;28;20103;-54
2022/05/10 03:00:31;;;;;;;24.10;15.10;;;15.00;99.90;;;;;;5071029;28;20032;-54
2022/05/10 03:03:00;;;;;;;27.10;15.45;;;15.10;99.90;;;;;;5071175;28;20444;-54
2022/05/10 03:05:26;;;;;;;24.20;14.68;;;15.10;99.90;;;;;;5070946;28;20032;-54
2022/05/10 03:07:53;;;;;;;27.50;14.95;;;15.10;99.90;;;;;;5071217;28;20385;-54
2022/05/10 03:10:20;;;;;;;23.15;16.05;;;15.00;99.90;;;;;;5070749;28;20349;-54
2022/05/10 03:12:49;;;;;;;25.35;15.65;;;15.00;99.90;;;;;;5070853;28;20025;-54
2022/05/10 03:15:14;;;;;;;27.48;15.65;;;15.00;99.90;;;;;;5070652;28;20032;-54
2022/05/10 03:17:40;;;;;;;23.15;15.02;;;15.00;99.90;;;;;;5071624;28;20037;-54
2022/05/10 03:20:06;;;;;;;28.27;16.17;;;15.00;99.90;;;;;;5071807;28;20024;-55
2022/05/10 03:22:32;;;;;;;24.55;16.60;;;14.90;99.90;;;;;;5071167;28;20038;-55
2022/05/10 03:24:57;;;;;;;27.50;16.13;;;15.00;99.90;;;;;;5070961;28;20028;-55
2022/05/10 03:27:24;;;;;;;23.27;14.88;;;15.00;99.90;;;;;;5071266;28;20406;-56
2022/05/10 03:29:49;;;;;;;24.15;15.32;;;14.90;99.90;;;;;;5071052;28;20158;-54
2022/05/10 03:32:18;;;;;;;27.67;15.50;;;14.90;99.90;;;;;;5071658;28;20051;-58
2022/05/10 03:34:59;;;;;;;26.40;15.50;;;14.90;99.90;;;;;;5070949;28;20048;-54
2022/05/10 03:37:31;;;;;;;22.33;15.45;;;15.00;99.90;;;;;;5071167;28;20025;-53
2022/05/10 03:39:57;;;;;;;26.52;14.77;;;15.00;99.90;;;;;;5071163;28;20435;-54
2022/05/10 03:42:23;;;;;;;26.73;15.43;;;14.90;99.90;;;;;;5069666;28;20029;-54
2022/05/10 03:44:52;;;;;;;27.38;15.27;;;14.90;99.90;;;;;;5069438;28;20134;-54
2022/05/10 03:47:20;;;;;;;25.60;15.27;;;15.00;99.90;;;;;;5070619;28;20469;-54
2022/05/10 03:49:46;;;;;;;26.88;14.95;;;15.00;99.90;;;;;;5070697;28;20385;-54
2022/05/10 03:52:13;;;;;;;25.98;15.00;;;15.00;99.90;;;;;;5071343;28;20082;-54
2022/05/10 03:54:38;;;;;;;25.77;15.70;;;14.90;99.90;;;;;;5070600;28;20040;-54
2022/05/10 03:57:05;;;;;;;24.15;14.55;;;14.90;99.90;;;;;;5069618;28;20743;-54
2022/05/10 03:59:31;;;;;;;26.05;15.27;;;14.90;99.90;;;;;;5070677;28;20539;-55
2022/05/10 04:01:57;;;;;;;22.92;15.55;;;14.90;99.90;;;;;;5070911;28;20024;-54
2022/05/10 04:04:23;;;;;;;25.00;16.20;;;14.80;99.90;;;;;;5070972;28;20100;-55
2022/05/10 04:06:49;;;;;;;24.83;14.55;;;14.80;99.90;;;;;;5070756;28;20125;-54
2022/05/10 04:09:16;;;;;;;22.05;14.55;;;14.80;99.90;;;;;;5069801;28;20673;-54
2022/05/10 04:11:42;;;;;;;25.85;14.93;;;14.80;99.90;;;;;;5070399;28;20021;-54
2022/05/10 04:14:08;;;;;;;24.67;14.77;;;14.80;99.90;;;;;;5070361;28;20100;-54
2022/05/10 04:16:33;;;;;;;21.88;14.65;;;14.80;99.90;;;;;;5070584;28;20107;-54
2022/05/10 04:18:59;;;;;;;19.52;14.30;;;14.90;99.90;;;;;;5070161;28;20454;-54
2022/05/10 04:21:24;;;;;;;24.17;14.40;;;14.90;99.90;;;;;;5070661;28;20063;-53
2022/05/10 04:23:50;;;;;;;19.73;13.40;;;14.90;99.90;;;;;;5070143;28;20021;-55
2022/05/10 04:26:18;;;;;;;24.63;14.05;;;15.00;99.90;;;;;;5069876;28;20472;-55
2022/05/10 04:28:45;;;;;;;19.90;13.88;;;15.00;99.90;;;;;;5070231;28;20466;-55
2022/05/10 04:31:11;;;;;;;20.40;13.35;;;15.00;99.90;;;;;;5070388;28;20557;-56
2022/05/10 04:33:37;;;;;;;20.98;12.45;;;15.20;99.90;;;;;;5070424;28;20466;-55
2022/05/10 04:36:03;;;;;;;20.73;12.77;;;15.20;99.90;;;;;;5070096;28;20069;-54
2022/05/10 04:38:28;;;;;;;20.13;13.40;;;15.20;99.90;;;;;;5069864;28;20064;-54
2022/05/10 04:44:01;;;;;;;26.95;14.20;;;15.30;99.90;;;;;;5057549;28;20116;-54
2022/05/10 04:46:30;;;;;;;18.85;13.45;;;15.30;99.90;;;;;;5069716;28;20050;-54
2022/05/10 04:48:56;;;;;;;19.50;13.02;;;15.30;99.90;;;;;;5069960;28;20052;-54
2022/05/10 04:51:23;;;;;;;20.52;12.65;;;15.30;99.90;;;;;;5070213;28;20032;-55
2022/05/10 04:53:48;;;;;;;19.35;12.50;;;15.30;99.90;;;;;;5069921;28;20107;-55
2022/05/10 04:56:14;;;;;;;17.70;13.00;;;15.30;99.90;;;;;;5069753;28;20108;-54
2022/05/10 04:58:40;;;;;;;16.55;12.30;;;15.30;99.90;;;;;;5069569;28;20039;-54
2022/05/10 05:01:12;;;;;;;20.30;13.25;;;15.40;99.90;;;;;;5070360;28;20035;-54
2022/05/10 05:03:45;;;;;;;20.73;14.02;;;15.40;99.90;;;;;;5070120;28;20077;-55
2022/05/10 05:06:12;;;;;;;17.40;12.40;;;15.40;99.90;;;;;;5069871;28;20127;-55
2022/05/10 05:08:37;;;;;;;21.55;12.50;;;15.40;99.90;;;;;;5072486;28;20028;-55
2022/05/10 05:11:04;;;;;;;19.63;12.77;;;15.50;99.90;;;;;;5074189;28;20524;-55
2022/05/10 05:13:29;;;;;;;20.02;12.98;;;15.50;99.90;;;;;;5073558;28;20446;-56
2022/05/10 05:15:55;;;;;;;19.58;13.18;;;15.50;99.90;;;;;;5071250;28;20111;-54
2022/05/10 05:18:21;;;;;;;19.35;12.65;;;15.50;99.90;;;;;;5067401;28;20104;-55
2022/05/10 05:20:48;;;;;;;21.80;14.13;;;15.60;99.90;;;;;;5069658;28;20024;-54
2022/05/10 05:23:16;;;;;;;20.80;12.32;;;15.60;99.90;;;;;;5080107;28;20058;-54
2022/05/10 05:25:42;;;;;;;18.45;12.13;;;15.60;99.90;;;;;;5064038;28;20033;-55
2022/05/10 05:28:09;;;;;;;18.67;13.25;;;15.70;99.90;;;;;;5065557;28;20036;-55
2022/05/10 05:30:35;;;;;;;16.52;12.40;;;15.70;99.90;;;;;;5058486;28;20029;-55
2022/05/10 05:33:02;;;;;;;23.02;13.23;;;15.70;99.90;;;;;;5074412;28;20031;-54
2022/05/10 05:35:27;;;;;;;20.67;12.35;;;15.70;99.90;;;;;;5076962;28;20048;-55
2022/05/10 05:37:54;;;;;;;20.88;12.40;;;15.80;99.90;;;;;;5089824;28;20207;-55
2022/05/10 05:40:22;;;;;;;17.15;12.50;;;15.90;99.90;;;;;;5073141;28;20028;-55
2022/05/10 05:42:49;;;;;;;15.77;11.77;;;16.00;99.90;;;;;;5079348;28;20032;-55
2022/05/10 05:45:17;;;;;;;17.70;11.77;;;16.20;99.90;;;;;;5092326;28;20028;-55
2022/05/10 05:47:43;;;;;;;17.00;12.32;;;16.20;99.90;;;;;;5072972;28;20042;-53
2022/05/10 05:50:11;;;;;;;18.52;11.70;;;16.30;99.90;;;;;;5065455;28;20028;-53
2022/05/10 05:52:37;;;;;;;14.38;12.02;;;16.30;99.90;;;;;;5065822;28;20105;-54
2022/05/10 05:55:04;;;;;;;16.25;11.75;;;16.30;99.90;;;;;;5058094;28;20033;-54
2022/05/10 05:57:29;;;;;;;15.80;11.40;;;16.40;99.90;;;;;;5081756;28;20117;-54
2022/05/10 05:59:58;;;;;;;20.83;11.60;;;16.40;99.90;;;;;;5064028;28;20486;-54
2022/05/10 06:02:25;;;;;;;17.17;11.30;;;16.50;99.90;;;;;;5063233;28;20485;-53
2022/05/10 06:04:51;;;;;;;18.63;11.95;;;16.50;99.90;;;;;;5060589;28;20024;-53
2022/05/10 06:07:17;;;;;;;16.02;11.20;;;16.60;99.90;;;;;;5067235;28;20365;-53
2022/05/10 06:09:44;;;;;;;18.38;12.20;;;16.60;99.90;;;;;;5060595;28;20537;-53
2022/05/10 06:12:12;;;;;;;16.65;11.45;;;16.70;99.90;;;;;;5066479;28;20037;-53
2022/05/10 06:14:39;;;;;;;18.23;12.07;;;16.70;99.90;;;;;;5053977;28;20304;-53
2022/05/10 06:17:05;;;;;;;20.63;12.57;;;16.80;99.90;;;;;;5055411;28;20037;-53
2022/05/10 06:19:33;;;;;;;16.98;12.30;;;16.80;99.90;;;;;;5056553;28;20481;-54
2022/05/10 06:21:58;;;;;;;19.33;11.93;;;16.80;99.90;;;;;;5079218;28;20025;-54
2022/05/10 06:24:26;;;;;;;18.73;11.43;;;16.90;99.90;;;;;;5056012;28;20093;-54
2022/05/10 06:26:52;;;;;;;19.27;11.93;;;17.00;99.90;;;;;;5059086;28;20081;-54
2022/05/10 06:29:18;;;;;;;22.98;11.82;;;17.10;99.90;;;;;;5053910;28;20115;-54
2022/05/10 06:31:45;;;;;;;14.00;10.88;;;17.20;99.90;;;;;;5058148;28;20063;-54
2022/05/10 06:34:11;;;;;;;19.00;11.73;;;17.30;99.90;;;;;;5055044;28;20963;-54
2022/05/10 06:36:37;;;;;;;14.70;11.63;;;17.40;99.90;;;;;;5048446;28;20106;-54
2022/05/10 06:39:03;;;;;;;18.23;11.38;;;17.40;99.90;;;;;;5056513;28;20037;-54
2022/05/10 06:41:32;;;;;;;19.00;12.00;;;17.40;99.90;;;;;;5055073;28;20025;-54
2022/05/10 06:43:59;;;;;;;16.60;11.68;;;17.50;99.90;;;;;;5052282;28;20016;-54
2022/05/10 06:46:26;;;;;;;17.90;12.07;;;17.50;99.90;;;;;;5059448;28;20028;-54
2022/05/10 06:48:52;;;;;;;19.65;11.48;;;17.40;99.90;;;;;;5057124;28;20016;-54
2022/05/10 06:51:21;;;;;;;16.35;11.27;;;17.50;99.90;;;;;;5061146;28;20478;-54
2022/05/10 06:53:47;;;;;;;20.60;11.13;;;17.70;99.90;;;;;;5057857;28;20102;-55
2022/05/10 06:56:14;;;;;;;17.95;9.93;;;17.80;99.90;;;;;;5059226;28;20082;-54
2022/05/10 06:58:39;;;;;;;14.80;10.60;;;18.00;99.90;;;;;;5056375;28;20115;-54
2022/05/10 07:01:10;;;;;;;14.73;9.65;;;18.10;99.90;;;;;;5063986;28;20040;-54
2022/05/10 07:03:36;;;;;;;15.05;10.48;;;18.40;99.90;;;;;;5062872;28;20063;-54
2022/05/10 07:06:04;;;;;;;11.73;10.27;;;18.50;99.90;;;;;;5061084;28;20013;-54
2022/05/10 07:08:30;;;;;;;14.15;10.10;;;18.60;99.90;;;;;;5058674;28;20032;-55
2022/05/10 07:10:56;;;;;;;13.65;10.43;;;18.60;99.90;;;;;;5054835;28;21101;-55
2022/05/10 07:13:24;;;;;;;12.32;10.32;;;18.60;99.90;;;;;;5053642;28;20040;-55
2022/05/10 07:15:50;;;;;;;13.77;10.70;;;18.60;99.90;;;;;;5061162;28;20486;-55
2022/05/10 07:18:17;;;;;;;14.13;10.45;;;18.60;99.90;;;;;;5060374;28;20058;-55
2022/05/10 07:20:43;;;;;;;12.50;9.68;;;18.60;99.90;;;;;;5058553;28;20036;-55
2022/05/10 07:23:10;;;;;;;12.93;10.13;;;18.60;99.90;;;;;;5060805;28;20016;-55
2022/05/10 07:25:36;;;;;;;15.85;9.65;;;18.60;99.90;;;;;;5062111;28;20024;-55
2022/05/10 07:28:02;;;;;;;11.95;9.98;;;18.70;99.90;;;;;;5067126;28;20074;-55
2022/05/10 07:30:30;;;;;;;14.02;10.27;;;18.80;99.90;;;;;;5064128;28;20056;-55
2022/05/10 07:32:57;;;;;;;16.75;10.18;;;19.00;99.90;;;;;;5059306;28;20032;-55
2022/05/10 07:38:10;;;;;;;15.85;9.75;;;19.40;99.90;;;;;;5060243;28;20465;-55
2022/05/10 07:40:36;;;;;;;11.57;8.70;;;19.60;99.90;;;;;;5064726;28;20031;-56
2022/05/10 07:43:03;;;;;;;13.65;8.98;;;19.80;99.90;;;;;;5055249;28;20025;-56
2022/05/10 07:45:28;;;;;;;14.00;8.90;;;19.90;99.90;;;;;;5059303;28;20016;-55
2022/05/10 07:47:54;;;;;;;11.98;8.95;;;19.90;99.90;;;;;;5055137;28;20066;-55
2022/05/10 07:50:20;;;;;;;10.40;8.75;;;19.90;99.90;;;;;;5063293;28;20033;-55
2022/05/10 07:52:46;;;;;;;15.35;9.13;;;20.00;99.90;;;;;;5060859;28;20711;-55
2022/05/10 07:55:13;;;;;;;24.88;9.52;;;20.10;99.90;;;;;;5056770;28;20021;-55
2022/05/10 07:57:39;;;;;;;12.25;9.25;;;20.30;99.90;;;;;;5056459;28;20036;-55
2022/05/10 08:00:08;;;;;;;11.55;8.80;;;20.50;99.90;;;;;;5056473;28;20016;-55
2022/05/10 08:02:35;;;;;;;13.20;8.43;;;20.60;99.90;;;;;;5059792;28;20024;-56
2022/05/10 08:05:02;;;;;;;14.88;8.88;;;20.70;99.90;;;;;;5054623;28;20115;-55
2022/05/10 08:07:28;;;;;;;9.45;8.25;;;21.20;99.90;;;;;;5068123;28;20505;-56
2022/05/10 08:09:54;;;;;;;12.30;8.68;;;21.70;99.90;;;;;;5059669;28;20031;-55
2022/05/10 08:12:20;;;;;;;13.60;7.90;;;22.00;99.90;;;;;;5057425;28;20533;-55
2022/05/10 08:14:46;;;;;;;14.57;8.63;;;22.00;99.90;;;;;;5048813;28;20032;-55
2022/05/10 08:17:11;;;;;;;11.68;8.23;;;21.90;99.90;;;;;;5052718;28;20049;-55
2022/05/10 08:19:37;;;;;;;12.93;8.77;;;21.70;99.90;;;;;;5059948;28;20072;-55
2022/05/10 08:22:03;;;;;;;18.13;8.85;;;21.50;99.90;;;;;;5056444;28;20025;-55
2022/05/10 08:24:28;;;;;;;9.50;8.10;;;21.60;99.90;;;;;;5062030;28;20028;-55
2022/05/10 08:26:54;;;;;;;11.27;8.50;;;21.80;99.90;;;;;;5053214;28;20048;-56
2022/05/10 08:29:20;;;;;;;12.80;8.35;;;22.00;99.90;;;;;;5049734;28;20524;-56
2022/05/10 08:31:45;;;;;;;10.55;7.68;;;22.00;99.90;;;;;;5053382;28;20544;-56
2022/05/10 08:34:11;;;;;;;14.57;7.65;;;22.30;99.90;;;;;;5056434;28;20053;-56
2022/05/10 08:36:37;;;;;;;9.30;8.15;;;22.80;99.90;;;;;;5054789;28;20477;-56
2022/05/10 08:39:03;;;;;;;11.63;7.28;;;22.70;99.90;;;;;;5057960;28;20029;-56
2022/05/10 08:41:47;;;;;;;9.95;7.50;;;23.00;99.90;;;;;;5063273;28;20063;-57
2022/05/10 08:44:23;;;;;;;8.77;6.93;;;23.30;99.90;;;;;;5058838;28;20410;-57
2022/05/10 08:47:03;;;;;;;10.13;6.65;;;23.70;99.90;;;;;;5070678;28;20016;-57
2022/05/10 08:49:50;;;;;;;8.05;6.57;;;23.80;99.80;;;;;;5061084;28;20029;-56
2022/05/10 08:52:17;;;;;;;8.35;6.72;;;23.80;98.60;;;;;;5067586;28;20024;-57
2022/05/10 08:54:43;;;;;;;9.82;6.70;;;23.90;99.10;;;;;;5071529;28;20085;-57
2022/05/10 08:57:32;;;;;;;10.43;6.90;;;23.50;99.30;;;;;;5069205;28;20032;-56
2022/05/10 09:00:09;;;;;;;12.43;6.75;;;23.00;99.80;;;;;;5075676;28;20077;-57
2022/05/10 09:02:46;;;;;;;7.90;6.68;;;22.90;99.90;;;;;;5067177;28;20048;-57
2022/05/10 09:05:36;;;;;;;11.27;7.18;;;22.80;99.70;;;;;;5070221;28;20017;-56
2022/05/10 09:08:26;;;;;;;11.63;6.82;;;22.90;99.90;;;;;;5070334;28;20090;-57
2022/05/10 09:11:14;;;;;;;8.02;6.93;;;23.30;99.50;;;;;;5071893;28;20054;-57
2022/05/10 09:13:42;;;;;;;8.68;6.45;;;23.90;98.80;;;;;;5065855;28;20070;-57
2022/05/10 09:16:12;;;;;;;9.82;6.78;;;24.20;98.40;;;;;;5072679;28;20036;-57
2022/05/10 09:18:46;;;;;;;11.98;6.55;;;24.60;97.50;;;;;;5068388;28;20024;-57
2022/05/10 09:21:23;;;;;;;8.30;6.47;;;25.00;96.60;;;;;;5066246;28;20039;-57
2022/05/10 09:24:12;;;;;;;8.57;5.70;;;25.00;96.60;;;;;;5070346;28;20020;-57
2022/05/10 09:26:42;;;;;;;9.15;6.40;;;25.00;96.20;;;;;;5071846;28;20393;-60
2022/05/10 09:29:17;;;;;;;8.00;6.18;;;24.70;96.70;;;;;;5069127;28;20044;-57
2022/05/10 09:34:45;;;;;;;12.50;6.22;;;24.60;95.90;;;;;;5068216;28;20476;-57
2022/05/10 09:37:31;;;;;;;11.82;5.93;;;24.90;96.60;;;;;;5070632;28;20029;-57
2022/05/10 09:39:56;;;;;;;13.60;6.07;;;25.00;95.10;;;;;;5066154;28;20127;-57
2022/05/10 09:42:32;;;;;;;8.25;6.35;;;24.70;94.90;;;;;;5067215;28;20095;-57
2022/05/10 09:45:16;;;;;;;10.40;6.70;;;24.70;95.20;;;;;;5085419;28;20041;-57
2022/05/10 09:47:58;;;;;;;9.48;6.40;;;24.50;95.10;;;;;;5066336;28;20405;-57
2022/05/10 09:50:30;;;;;;;8.80;6.40;;;24.60;94.70;;;;;;5066189;28;20411;-57
2022/05/10 09:53:18;;;;;;;12.73;5.38;;;24.40;95.50;;;;;;5064959;28;20504;-57
2022/05/10 09:56:22;;;;;;;10.05;6.68;;;24.00;95.30;;;;;;5066852;28;20020;-57
2022/05/10 09:59:28;;;;;;;9.45;6.50;;;23.80;96.30;;;;;;5058890;28;20036;-57
2022/05/10 10:01:58;;;;;;;10.60;6.38;;;23.80;96.00;;;;;;5054892;28;20032;-57
2022/05/10 10:04:35;;;;;;;9.23;6.18;;;24.00;96.50;;;;;;5064099;28;20061;-57
2022/05/10 10:07:21;;;;;;;9.05;6.43;;;24.30;96.20;;;;;;5054519;28;20025;-57
2022/05/10 10:09:51;;;;;;;7.50;6.78;;;24.20;95.80;;;;;;5059999;28;20031;-57
2022/05/10 10:12:17;;;;;;;9.60;6.20;;;24.00;95.90;;;;;;5060467;28;20032;-59
2022/05/10 10:14:44;;;;;;;9.98;6.30;;;23.70;96.30;;;;;;5060389;28;20486;-57
2022/05/10 10:17:28;;;;;;;10.30;6.45;;;23.60;97.20;;;;;;5062892;28;20059;-56
2022/05/10 10:20:12;;;;;;;10.82;6.20;;;23.40;96.90;;;;;;5057531;28;20067;-56
2022/05/10 10:22:42;;;;;;;8.60;5.55;;;23.90;96.40;;;;;;5063855;28;20035;-57
2022/05/10 10:25:25;;;;;;;9.65;6.28;;;24.50;96.10;;;;;;5053487;28;20168;-57
2022/05/10 10:28:07;;;;;;;8.77;5.78;;;24.40;95.60;;;;;;5055560;28;20024;-57
2022/05/10 10:31:02;;;;;;;7.82;5.97;;;24.50;96.10;;;;;;5061665;28;20041;-57
2022/05/10 10:34:07;;;;;;;9.95;6.20;;;24.50;95.00;;;;;;5057436;28;20058;-57
2022/05/10 10:36:46;;;;;;;7.50;5.78;;;24.30;95.80;;;;;;5059102;28;20071;-57
2022/05/10 10:39:22;;;;;;;9.93;6.00;;;24.70;96.00;;;;;;5064221;28;20039;-57
2022/05/10 10:41:51;;;;;;;7.15;5.70;;;24.60;95.30;;;;;;5057133;28;20039;-57
2022/05/10 10:44:36;;;;;;;7.75;5.57;;;24.90;94.60;;;;;;5057273;28;20028;-57
2022/05/10 10:47:07;;;;;;;9.40;5.78;;;24.80;94.20;;;;;;5060952;28;20492;-57
2022/05/10 10:50:08;;;;;;;13.23;5.40;;;24.60;94.90;;;;;;5053754;28;20031;-57
2022/05/10 10:52:33;;;;;;;8.15;5.18;;;24.70;95.50;;;;;;5059917;28;20032;-57
2022/05/10 10:55:00;;;;;;;14.30;5.90;;;24.70;94.00;;;;;;5062450;28;20722;-57
2022/05/10 10:57:40;;;;;;;8.85;5.00;;;24.60;94.60;;;;;;5058016;28;20064;-56
2022/05/10 11:00:11;;;;;;;9.20;5.38;;;24.50;94.50;;;;;;5057497;28;20029;-57
2022/05/10 11:02:59;;;;;;;11.97;5.60;;;24.50;94.70;;;;;;5056768;28;20429;-56
2022/05/10 11:05:34;;;;;;;9.75;5.38;;;24.60;94.30;;;;;;5056323;28;20112;-58
2022/05/10 11:08:18;;;;;;;9.70;4.80;;;24.90;93.70;;;;;;5057210;28;20075;-58
2022/05/10 11:10:54;;;;;;;9.85;4.68;;;26.80;92.30;;;;;;5052386;28;20036;-57
2022/05/10 11:13:37;;;;;;;8.20;4.72;;;27.70;89.50;;;;;;5052423;28;20291;-57
2022/05/10 11:16:31;;;;;;;7.88;4.35;;;27.20;89.40;;;;;;5056901;28;20059;-57
2022/05/10 11:19:14;;;;;;;9.20;5.10;;;27.00;88.90;;;;;;5059541;28;20435;-57
2022/05/10 11:22:06;;;;;;;9.15;4.70;;;26.90;88.90;;;;;;5064771;28;20432;-57
2022/05/10 11:24:43;;;;;;;6.32;4.50;;;26.70;89.90;;;;;;5051342;28;20486;-57
2022/05/10 11:27:33;;;;;;;8.10;4.97;;;26.20;89.20;;;;;;5057093;28;20035;-57
2022/05/10 11:30:07;;;;;;;7.15;5.47;;;25.80;91.00;;;;;;5054714;28;20042;-57
2022/05/10 11:33:10;;;;;;;9.32;4.80;;;25.50;90.10;;;;;;5061545;28;20106;-57
2022/05/10 11:36:02;;;;;;;9.35;4.97;;;25.60;90.60;;;;;;5049561;28;20048;-57
2022/05/10 11:38:28;;;;;;;;;;;25.80;90.30;;;;;;5059263;28;20086;-57
2022/05/10 11:41:07;;;;;;;7.45;4.85;;;25.40;90.60;;;;;;5061322;28;19908;-57
2022/05/10 11:43:51;;;;;;;8.90;4.55;;;25.40;91.40;;;;;;5061572;28;20032;-57
2022/05/10 11:46:37;;;;;;;9.15;4.97;;;26.10;90.90;;;;;;5059636;28;20046;-57
2022/05/10 11:49:08;;;;;;;9.15;4.38;;;26.80;90.20;;;;;;5062072;28;20401;-57
2022/05/10 11:51:44;;;;;;;6.80;4.18;;;27.10;85.40;;;;;;5067557;28;20036;-58
2022/05/10 11:54:31;;;;;;;8.68;4.63;;;26.80;85.80;;;;;;5069784;28;20428;-58
2022/05/10 11:56:58;;;;;;;10.13;4.90;;;26.30;86.40;;;;;;5060933;28;20029;-58
2022/05/10 11:59:34;;;;;;;6.05;3.78;;;26.00;87.80;;;;;;5057476;28;20410;-58
2022/05/10 12:02:01;;;;;;;6.50;3.63;;;25.60;86.70;;;;;;5052532;28;20459;-56
2022/05/10 12:04:40;;;;;;;4.70;3.72;;;25.60;86.00;;;;;;5055650;28;20124;-58
2022/05/10 12:07:20;;;;;;;13.63;4.15;;;25.60;85.60;;;;;;5059371;28;20512;-57
2022/05/10 12:09:52;;;;;;;8.77;3.33;;;25.80;85.10;;;;;;5063774;28;20027;-58
2022/05/10 12:12:33;;;;;;;6.43;3.17;;;26.00;83.60;;;;;;5055739;28;20128;-57
2022/05/10 12:21:26;;;;;;;7.00;3.72;;;25.90;83.80;;;;;;5065252;28;20073;-58
2022/05/10 12:24:05;;;;;;;11.43;3.45;;;25.20;85.00;;;;;;5057004;28;20017;-58
2022/05/10 12:26:37;;;;;;;9.40;3.30;;;25.10;85.40;;;;;;5055640;28;20033;-58
2022/05/10 12:29:05;;;;;;;9.40;3.72;;;25.40;86.10;;;;;;5059971;28;20161;-58
2022/05/10 12:31:32;;;;;;;6.43;4.35;;;25.80;86.90;;;;;;5068494;28;20039;-61
2022/05/10 12:34:00;;;;;;;7.75;3.78;;;26.40;83.30;;;;;;5059354;28;20025;-58
2022/05/10 12:36:35;;;;;;;8.40;3.85;;;26.20;84.40;;;;;;5057591;28;20089;-58
2022/05/10 12:39:23;;;;;;;7.90;4.28;;;26.50;84.80;;;;;;5059492;28;21569;-58
2022/05/10 12:42:00;;;;;;;7.85;4.10;;;27.20;83.50;;;;;;5052631;28;20055;-58
2022/05/10 12:44:47;;;;;;;12.30;4.00;;;27.10;84.00;;;;;;5052542;28;20527;-57
2022/05/10 12:47:47;;;;;;;10.10;4.22;;;27.00;84.40;;;;;;5045780;28;20028;-58
2022/05/10 12:50:35;;;;;;;8.27;3.67;;;27.40;83.10;;;;;;5053496;28;20082;-57
2022/05/10 12:53:01;;;;;;;5.40;3.08;;;27.30;80.40;;;;;;5061001;28;20310;-58
2022/05/10 12:55:30;;;;;;;5.57;3.10;;;27.30;81.00;;;;;;5059027;28;20024;-58
2022/05/10 12:58:05;;;;;;;9.25;3.10;;;27.10;81.40;;;;;;5053949;28;20025;-58
2022/05/10 13:00:54;;;;;;;5.47;3.63;;;26.40;81.60;;;;;;5056508;28;20029;-58
2022/05/10 13:03:24;;;;;;;5.05;3.55;;;25.70;81.80;;;;;;5043963;28;20195;-58
2022/05/10 13:06:14;;;;;;;6.75;3.90;;;25.80;82.30;;;;;;5062383;28;20531;-58
2022/05/10 13:09:08;;;;;;;5.15;2.85;;;25.70;82.60;;;;;;5052688;28;20543;-58
2022/05/10 13:11:44;;;;;;;8.35;3.00;;;25.70;81.80;;;;;;5056595;28;20037;-59
2022/05/10 13:14:11;;;;;;;7.20;3.20;;;25.70;83.10;;;;;;5061614;28;20527;-58
2022/05/10 13:16:48;;;;;;;6.10;3.13;;;25.90;82.80;;;;;;5065102;28;20123;-58
2022/05/10 13:19:15;;;;;;;4.07;3.00;;;25.70;82.90;;;;;;5063238;28;20664;-58
2022/05/10 13:21:42;;;;;;;4.78;3.40;;;25.40;83.60;;;;;;5063847;28;20025;-58